Time;durP1;ratioP1;P1;durP2;ratioP2;P2;SDS_P1;SDS_P2;PMS_P1;PMS_P2;Temp;Humidity;BMP_temperature;BMP_pressure;BME280_temperature;BME280_humidity;BME280_pressure;Samples;Min_cycle;Max_cycle;Signal;HPM_P1;HPM_P2
2020/12/27 00:02:14;;;;;;;1.10;0.10;;;;;;;5.26;100.00;99874.22;5007855;28;20480;-78
2020/12/27 00:04:40;;;;;;;1.20;0.10;;;;;;;5.15;100.00;99862.44;5007641;28;20447;-78
2020/12/27 00:07:08;;;;;;;1.20;0.10;;;;;;;5.28;100.00;99858.63;5011998;28;20432;-79
2020/12/27 00:09:34;;;;;;;1.20;0.10;;;;;;;5.15;100.00;99854.44;5007439;28;20450;-79
2020/12/27 00:12:00;;;;;;;1.30;0.10;;;;;;;5.12;100.00;99846.34;4992940;28;20448;-79
2020/12/27 00:14:25;;;;;;;3.00;0.27;;;;;;;5.12;100.00;99855.13;5001073;28;20530;-79
2020/12/27 00:16:51;;;;;;;1.10;0.10;;;;;;;4.97;100.00;99847.84;5000672;28;20657;-78
2020/12/27 00:19:16;;;;;;;1.70;0.10;;;;;;;4.97;100.00;99831.06;4999546;28;20195;-79
2020/12/27 00:21:42;;;;;;;1.33;0.20;;;;;;;4.94;100.00;99832.50;5001345;28;20185;-78
2020/12/27 00:24:07;;;;;;;1.10;0.10;;;;;;;4.82;100.00;99824.50;5000240;28;20751;-79
2020/12/27 00:26:33;;;;;;;1.43;0.20;;;;;;;4.87;100.00;99823.50;5001833;28;20209;-79
2020/12/27 00:28:58;;;;;;;1.30;0.13;;;;;;;4.72;100.00;99809.00;5000084;28;20196;-79
2020/12/27 00:31:24;;;;;;;1.20;0.10;;;;;;;4.92;100.00;99810.72;5000020;28;20181;-78
2020/12/27 00:33:49;;;;;;;1.20;0.10;;;;;;;4.83;100.00;99802.06;5004346;28;20272;-78
2020/12/27 00:36:21;;;;;;;1.20;0.10;;;;;;;4.83;100.00;99802.06;4999338;28;20181;-78
2020/12/27 00:38:48;;;;;;;1.27;0.10;;;;;;;4.91;100.00;99798.50;5003271;28;20190;-79
2020/12/27 00:41:23;;;;;;;1.10;0.00;;;;;;;4.87;100.00;99783.50;5011958;28;20818;-79
2020/12/27 00:43:49;;;;;;;1.70;0.10;;;;;;;4.57;100.00;99780.34;4992047;28;20460;-79
2020/12/27 00:46:15;;;;;;;1.10;0.10;;;;;;;4.59;100.00;99765.56;5012515;28;20458;-78
2020/12/27 00:48:41;;;;;;;1.27;0.10;;;;;;;4.68;100.00;99770.00;5007507;28;20951;-79
2020/12/27 00:51:07;;;;;;;1.50;0.40;;;;;;;4.45;100.00;99759.06;5009216;28;20319;-79
2020/12/27 00:53:32;;;;;;;1.30;0.10;;;;;;;4.45;100.00;99749.16;4987593;28;20475;-79
2020/12/27 00:55:58;;;;;;;1.30;0.10;;;;;;;4.51;100.00;99739.81;4999041;28;20204;-79
2020/12/27 00:58:23;;;;;;;1.20;0.10;;;;;;;4.43;100.00;99745.28;5011027;28;20192;-79
2020/12/27 01:00:49;;;;;;;1.20;0.17;;;;;;;4.25;100.00;99714.69;5010331;28;20537;-79
2020/12/27 01:03:16;;;;;;;1.40;0.20;;;;;;;4.18;100.00;99711.81;4998973;28;20211;-79
2020/12/27 01:06:10;;;;;;;1.40;0.10;;;;;;;4.35;100.00;99715.00;5014613;28;20978;-79
2020/12/27 01:08:36;;;;;;;1.20;0.00;;;;;;;4.21;100.00;99709.25;5012280;28;20450;-79
2020/12/27 01:11:04;;;;;;;1.57;0.20;;;;;;;4.30;100.00;99696.56;5005369;28;20953;-79
2020/12/27 01:13:29;;;;;;;1.40;0.20;;;;;;;4.32;100.00;99682.91;5000533;28;20594;-79
2020/12/27 01:15:55;;;;;;;1.60;0.10;;;;;;;4.22;100.00;99681.47;5005573;28;21021;-79
2020/12/27 01:18:24;;;;;;;1.40;0.30;;;;;;;4.26;100.00;99674.38;4999374;28;20175;-79
2020/12/27 01:20:53;;;;;;;1.20;0.10;;;;;;;4.17;100.00;99676.41;5006197;28;21034;-79
2020/12/27 01:23:21;;;;;;;1.20;0.10;;;;;;;4.31;100.00;99662.72;4990286;28;20455;-79
2020/12/27 01:25:47;;;;;;;1.43;0.30;;;;;;;4.21;100.00;99655.19;4995177;28;20435;-79
2020/12/27 01:28:13;;;;;;;1.27;0.07;;;;;;;4.29;100.00;99647.06;5009567;28;20210;-79
2020/12/27 01:30:40;;;;;;;1.30;0.10;;;;;;;4.47;100.00;99640.31;5002823;28;20450;-78
2020/12/27 01:33:10;;;;;;;1.83;0.27;;;;;;;4.44;100.00;99629.56;5004760;28;20510;-79
2020/12/27 01:35:48;;;;;;;2.33;0.20;;;;;;;4.40;100.00;99634.03;4991750;28;20438;-80
2020/12/27 01:38:15;;;;;;;1.40;0.20;;;;;;;4.19;100.00;99628.09;4998682;28;20450;-79
2020/12/27 01:40:41;;;;;;;1.27;0.13;;;;;;;4.22;100.00;99620.22;4997549;28;20463;-79
2020/12/27 01:43:08;;;;;;;1.63;0.20;;;;;;;4.49;100.00;99614.13;4988868;28;20248;-79
2020/12/27 01:45:34;;;;;;;1.47;0.10;;;;;;;4.38;100.00;99612.28;4999136;28;21159;-79
2020/12/27 01:48:19;;;;;;;1.93;0.20;;;;;;;4.38;100.00;99598.94;4998544;28;20189;-79
2020/12/27 01:50:52;;;;;;;1.40;0.20;;;;;;;4.35;100.00;99594.31;4990677;28;20523;-78
2020/12/27 01:53:40;;;;;;;1.20;0.10;;;;;;;4.27;100.00;99577.34;4999650;28;20481;-79
2020/12/27 01:56:16;;;;;;;1.40;0.13;;;;;;;4.40;100.00;99567.41;4991841;28;20445;-79
2020/12/27 01:58:53;;;;;;;1.20;0.10;;;;;;;4.38;100.00;99557.09;4994634;28;20983;-79
2020/12/27 02:01:22;;;;;;;1.20;0.10;;;;;;;4.46;100.00;99550.84;4999996;28;20455;-80
2020/12/27 02:03:58;;;;;;;1.20;0.10;;;;;;;4.37;100.00;99557.44;5005170;28;20466;-79
2020/12/27 02:06:32;;;;;;;1.20;0.10;;;;;;;4.52;100.00;99551.38;4999828;28;20444;-79
2020/12/27 02:09:07;;;;;;;1.23;0.13;;;;;;;4.44;100.00;99545.09;5004514;28;20473;-79
2020/12/27 02:12:02;;;;;;;1.17;0.07;;;;;;;4.47;100.00;99531.06;4984011;28;20520;-79
2020/12/27 02:14:29;;;;;;;1.20;0.00;;;;;;;4.61;100.00;99519.22;4924524;29;20458;-80
2020/12/27 02:16:55;;;;;;;1.20;0.00;;;;;;;4.62;100.00;99494.91;4919213;29;20836;-79
2020/12/27 02:19:39;;;;;;;1.20;0.00;;;;;;;4.49;100.00;99509.41;4936335;29;20454;-79
2020/12/27 02:22:10;;;;;;;1.20;0.10;;;;;;;4.58;100.00;99484.16;4930459;29;20458;-79
2020/12/27 02:24:54;;;;;;;1.40;0.20;;;;;;;4.60;100.00;99475.81;4938347;29;20449;-79
2020/12/27 02:27:23;;;;;;;1.17;0.10;;;;;;;4.64;100.00;99457.22;4938242;29;20446;-79
2020/12/27 02:29:51;;;;;;;1.20;0.07;;;;;;;4.54;100.00;99466.50;4932765;29;20439;-79
2020/12/27 02:32:26;;;;;;;1.20;0.10;;;;;;;4.65;100.00;99443.53;4930079;29;20481;-79
2020/12/27 02:34:52;;;;;;;1.20;0.10;;;;;;;4.62;100.00;99436.25;4950007;29;20448;-79
2020/12/27 02:37:18;;;;;;;1.13;0.00;;;;;;;4.82;100.00;99440.50;4937279;29;20986;-79
2020/12/27 02:40:03;;;;;;;1.20;0.07;;;;;;;4.89;100.00;99451.38;4924872;29;21114;-79
2020/12/27 02:42:49;;;;;;;1.23;0.07;;;;;;;4.99;100.00;99437.50;4941235;29;20492;-78
2020/12/27 02:45:15;;;;;;;1.30;0.13;;;;;;;5.05;100.00;99430.75;4937444;29;21260;-79
2020/12/27 02:48:08;;;;;;;1.17;0.00;;;;;;;5.00;100.00;99414.25;4903310;29;20796;-78
2020/12/27 02:51:04;;;;;;;1.70;0.20;;;;;;;4.85;100.00;99407.84;4957791;28;20952;-79
2020/12/27 02:53:29;;;;;;;1.20;0.10;;;;;;;4.99;100.00;99405.50;4935723;29;20521;-78
2020/12/27 02:55:55;;;;;;;1.20;0.10;;;;;;;5.11;100.00;99399.28;4942772;29;20541;-79
2020/12/27 02:58:21;;;;;;;1.20;0.10;;;;;;;4.99;100.00;99394.81;4945244;29;20571;-79
2020/12/27 03:00:50;;;;;;;1.83;0.20;;;;;;;5.10;100.00;99392.38;4909662;29;20457;-78
2020/12/27 03:03:22;;;;;;;1.40;0.10;;;;;;;5.11;100.00;99400.03;4935955;29;20477;-79
2020/12/27 03:06:08;;;;;;;1.33;0.13;;;;;;;5.17;100.00;99393.28;4940100;29;20813;-80
2020/12/27 03:08:34;;;;;;;1.10;0.10;;;;;;;5.11;100.00;99372.59;4935406;29;20443;-78
2020/12/27 03:11:24;;;;;;;1.20;0.10;;;;;;;5.05;100.00;99365.97;4928773;29;21005;-79
2020/12/27 03:13:50;;;;;;;1.30;0.10;;;;;;;5.13;100.00;99373.00;4928395;29;20550;-79
2020/12/27 03:16:16;;;;;;;1.17;0.10;;;;;;;5.09;100.00;99370.25;4941217;29;20431;-79
2020/12/27 03:19:00;;;;;;;1.30;0.10;;;;;;;5.08;100.00;99342.03;4949467;29;20501;-79
2020/12/27 03:21:38;;;;;;;1.10;0.00;;;;;;;4.89;100.00;99351.91;4917525;29;20451;-78
2020/12/27 03:24:10;;;;;;;1.40;0.20;;;;;;;4.92;100.00;99333.31;4925771;29;20963;-79
2020/12/27 03:26:36;;;;;;;1.10;0.10;;;;;;;4.95;100.00;99335.31;4941035;29;20483;-78
2020/12/27 03:29:02;;;;;;;1.10;0.10;;;;;;;4.85;100.00;99319.06;4944634;29;20340;-78
2020/12/27 03:31:29;;;;;;;1.40;0.20;;;;;;;4.97;100.00;99322.38;5002507;28;20471;-79
2020/12/27 03:34:02;;;;;;;1.57;0.17;;;;;;;4.83;100.00;99299.97;5006089;28;20470;-78
2020/12/27 03:36:28;;;;;;;1.20;0.10;;;;;;;4.87;100.00;99304.28;5003387;28;20437;-78
2020/12/27 03:39:03;;;;;;;1.50;0.20;;;;;;;4.90;100.00;99292.88;4983845;28;21018;-79
2020/12/27 03:41:44;;;;;;;1.10;0.10;;;;;;;4.98;100.00;99277.78;4998375;28;20526;-79
2020/12/27 03:44:28;;;;;;;1.20;0.10;;;;;;;4.91;99.51;99270.44;5008254;28;20460;-78
2020/12/27 03:47:30;;;;;;;1.20;0.10;;;;;;;4.86;100.00;99256.63;4994596;28;20444;-78
2020/12/27 03:50:18;;;;;;;1.10;0.00;;;;;;;4.69;100.00;99263.13;4990401;28;20984;-79
2020/12/27 03:52:51;;;;;;;1.30;0.10;;;;;;;4.65;100.00;99248.94;5008630;28;20490;-78
2020/12/27 03:55:39;;;;;;;1.20;0.10;;;;;;;4.73;100.00;99237.31;4998508;28;20813;-79
2020/12/27 03:58:25;;;;;;;1.30;0.10;;;;;;;4.75;100.00;99226.28;5008676;28;20477;-80
2020/12/27 04:01:03;;;;;;;1.53;0.20;;;;;;;4.64;99.67;99242.09;5016127;28;20463;-79
2020/12/27 04:03:31;;;;;;;1.20;0.10;;;;;;;4.60;99.57;99214.59;5010749;28;22190;-78
2020/12/27 04:06:04;;;;;;;1.10;0.07;;;;;;;4.64;99.74;99212.00;4996382;28;20499;-79
2020/12/27 04:08:32;;;;;;;1.10;0.00;;;;;;;4.66;99.84;99201.75;4984389;28;21006;-79
2020/12/27 04:10:58;;;;;;;1.13;0.07;;;;;;;4.67;99.40;99204.06;5006452;28;20436;-78
2020/12/27 04:13:25;;;;;;;1.20;0.07;;;;;;;4.73;98.99;99192.00;5015733;28;20455;-78
2020/12/27 04:16:00;;;;;;;1.30;0.20;;;;;;;4.68;98.62;99194.94;5002304;28;20435;-79
2020/12/27 04:18:28;;;;;;;1.20;0.10;;;;;;;4.65;98.72;99162.88;4994667;28;20452;-79
2020/12/27 04:21:15;;;;;;;1.10;0.00;;;;;;;4.66;98.26;99164.44;5000011;28;20494;-80
2020/12/27 04:23:46;;;;;;;1.40;0.20;;;;;;;4.61;98.14;99162.06;5010338;28;20491;-79
2020/12/27 04:26:16;;;;;;;1.50;0.10;;;;;;;4.64;97.71;99148.00;5010223;28;20472;-79
2020/12/27 04:28:44;;;;;;;1.50;0.20;;;;;;;4.58;97.11;99129.66;5009683;28;20454;-79
2020/12/27 04:31:20;;;;;;;1.40;0.20;;;;;;;4.56;98.60;99136.44;5010063;28;20428;-79
2020/12/27 04:33:51;;;;;;;1.10;0.07;;;;;;;4.68;97.53;99122.19;5000376;28;20216;-79
2020/12/27 04:36:25;;;;;;;1.13;0.07;;;;;;;4.62;96.80;99116.38;4994631;28;20594;-80
2020/12/27 04:38:51;;;;;;;1.20;0.10;;;;;;;4.62;97.22;99107.63;4990844;28;20531;-78
2020/12/27 04:41:18;;;;;;;1.63;0.20;;;;;;;4.61;97.26;99111.41;4999267;28;20172;-79
2020/12/27 04:43:48;;;;;;;1.67;0.10;;;;;;;4.51;96.91;99105.50;4989233;28;20463;-79
2020/12/27 04:46:35;;;;;;;1.10;0.10;;;;;;;4.59;96.46;99096.53;4997040;28;20519;-79
2020/12/27 04:49:02;;;;;;;1.30;0.17;;;;;;;4.59;96.69;99082.44;4947639;29;20852;-79
2020/12/27 04:51:37;;;;;;;1.20;0.10;;;;;;;4.58;96.47;99094.22;4935365;29;20495;-79
2020/12/27 04:54:26;;;;;;;1.10;0.07;;;;;;;4.64;95.94;99082.16;4932661;29;21061;-79
2020/12/27 04:57:01;;;;;;;1.10;0.10;;;;;;;4.47;96.05;99078.03;4930006;29;20442;-79
2020/12/27 04:59:27;;;;;;;1.20;0.10;;;;;;;4.43;96.85;99063.88;4939641;29;20513;-79
2020/12/27 05:01:53;;;;;;;1.37;0.23;;;;;;;4.48;97.09;99073.47;4921949;29;20444;-80
2020/12/27 05:04:25;;;;;;;1.37;0.10;;;;;;;4.41;96.66;99063.44;4932617;29;20245;-79
2020/12/27 05:07:06;;;;;;;1.87;0.10;;;;;;;4.38;96.66;99064.16;4923328;29;20448;-79
2020/12/27 05:09:54;;;;;;;1.40;0.20;;;;;;;4.33;96.95;99056.47;4933740;29;20791;-79
2020/12/27 05:12:20;;;;;;;1.57;0.20;;;;;;;4.41;96.45;99057.38;4928770;29;20496;-79
2020/12/27 05:14:46;;;;;;;1.10;0.10;;;;;;;4.43;96.17;99079.09;4932971;29;20452;-79
2020/12/27 05:17:14;;;;;;;1.40;0.13;;;;;;;4.29;96.68;99054.84;4932382;29;20188;-79
2020/12/27 05:20:14;;;;;;;1.30;0.20;;;;;;;4.53;95.98;99049.19;4917437;29;20589;-79
2020/12/27 05:22:43;;;;;;;1.17;0.07;;;;;;;4.40;95.59;99045.94;4891897;29;20504;-79
2020/12/27 05:25:14;;;;;;;2.73;0.50;;;;;;;4.36;96.48;99029.09;4893747;28;20523;-80
2020/12/27 05:28:08;;;;;;;1.20;0.10;;;;;;;4.46;95.68;99025.88;4961189;28;20454;-79
2020/12/27 05:31:10;;;;;;;2.87;0.53;;;;;;;4.36;95.34;99007.03;4949448;28;20532;-78
2020/12/27 05:33:54;;;;;;;1.20;0.10;;;;;;;4.22;95.70;99012.88;4960185;28;20564;-79
2020/12/27 05:37:00;;;;;;;1.93;0.30;;;;;;;4.31;96.11;98991.34;4961787;28;20454;-78
2020/12/27 05:39:57;;;;;;;1.20;0.10;;;;;;;4.26;95.62;98994.28;4965598;28;20452;-78
2020/12/27 05:42:43;;;;;;;1.60;0.10;;;;;;;4.12;95.99;99002.03;4961482;28;20549;-78
2020/12/27 05:45:17;;;;;;;1.43;0.10;;;;;;;4.19;96.16;98981.63;4956340;28;20449;-79
2020/12/27 05:47:45;;;;;;;1.20;0.10;;;;;;;4.21;95.66;98975.94;4962377;28;20530;-79
2020/12/27 05:50:14;;;;;;;1.20;0.07;;;;;;;4.19;95.85;98956.88;4936712;28;21303;-79
2020/12/27 05:52:49;;;;;;;1.10;0.10;;;;;;;4.14;95.52;98949.94;4938247;28;20470;-78
2020/12/27 05:55:23;;;;;;;1.30;0.20;;;;;;;4.22;95.71;98945.53;4945707;29;20471;-78
2020/12/27 05:57:51;;;;;;;1.23;0.13;;;;;;;4.23;94.85;98923.84;4941482;28;20445;-77
2020/12/27 06:00:19;;;;;;;1.20;0.10;;;;;;;4.25;94.72;98929.59;4997561;28;20432;-77
2020/12/27 06:03:01;;;;;;;1.40;0.20;;;;;;;4.12;95.80;98927.47;4989326;28;20459;-79
2020/12/27 06:05:54;;;;;;;1.83;0.30;;;;;;;4.22;95.50;98927.63;4995251;28;20470;-78
2020/12/27 06:08:27;;;;;;;1.10;0.10;;;;;;;4.19;95.34;98914.25;4996462;28;20454;-78
2020/12/27 06:10:58;;;;;;;1.20;0.10;;;;;;;4.15;94.98;98908.09;4999861;28;20442;-78
2020/12/27 06:13:29;;;;;;;1.20;0.10;;;;;;;4.05;95.63;98909.47;5001832;28;20467;-77
2020/12/27 06:17:03;;;;;;;1.23;0.13;;;;;;;4.09;94.86;98886.31;4999241;28;20499;-78
2020/12/27 06:19:57;;;;;;;1.20;0.10;;;;;;;4.11;94.86;98876.09;4993535;28;20439;-80
2020/12/27 06:22:33;;;;;;;1.20;0.10;;;;;;;4.16;94.80;98875.78;5010216;28;20470;-76
2020/12/27 06:25:19;;;;;;;1.20;0.10;;;;;;;4.02;95.24;98869.47;5011723;28;20442;-77
2020/12/27 06:27:47;;;;;;;1.20;0.10;;;;;;;4.01;95.37;98865.25;5011142;28;20455;-79
2020/12/27 06:30:21;;;;;;;1.10;0.10;;;;;;;3.94;94.97;98870.47;4998569;28;20440;-79
2020/12/27 06:33:16;;;;;;;1.43;0.17;;;;;;;3.99;95.28;98857.63;5002858;28;20214;-79
2020/12/27 06:35:44;;;;;;;1.23;0.10;;;;;;;4.05;94.54;98852.75;5005439;28;20461;-80
2020/12/27 06:38:21;;;;;;;1.10;0.10;;;;;;;4.07;94.97;98826.53;5011235;28;20450;-79
2020/12/27 06:41:13;;;;;;;1.20;0.10;;;;;;;4.04;93.90;98822.72;5007018;28;20551;-79
2020/12/27 06:43:57;;;;;;;1.33;0.17;;;;;;;3.98;93.84;98836.69;5006188;28;21117;-78
2020/12/27 06:46:31;;;;;;;1.20;0.10;;;;;;;4.06;93.59;98825.81;5007643;28;20876;-77
2020/12/27 06:49:14;;;;;;;1.10;0.10;;;;;;;4.04;93.77;98801.41;4998111;28;20477;-79
2020/12/27 06:52:25;;;;;;;1.30;0.10;;;;;;;4.02;94.17;98816.22;4997326;28;20467;-79
2020/12/27 06:55:09;;;;;;;2.23;0.40;;;;;;;4.06;94.09;98796.50;5007170;28;20496;-78
2020/12/27 06:57:51;;;;;;;1.23;0.10;;;;;;;4.15;94.02;98788.25;5003832;28;20508;-78
2020/12/27 07:00:31;;;;;;;1.37;0.13;;;;;;;4.13;93.45;98777.97;4999318;28;20988;-78
2020/12/27 07:03:22;;;;;;;1.23;0.13;;;;;;;4.11;93.40;98787.44;5003443;28;20481;-78
2020/12/27 07:05:49;;;;;;;1.10;0.10;;;;;;;4.15;92.76;98777.59;4989066;28;20451;-79
2020/12/27 07:08:36;;;;;;;1.20;0.10;;;;;;;4.21;92.66;98765.53;5000132;28;20448;-78
2020/12/27 07:11:06;;;;;;;1.30;0.30;;;;;;;4.20;92.37;98764.75;4989700;28;20495;-78
2020/12/27 07:13:46;;;;;;;1.20;0.10;;;;;;;4.26;91.52;98747.31;4991231;28;22173;-77
2020/12/27 07:16:14;;;;;;;1.73;0.30;;;;;;;4.14;92.14;98746.78;4988413;28;20460;-78
2020/12/27 07:18:40;;;;;;;1.20;0.10;;;;;;;4.31;92.07;98747.03;4995695;28;20449;-79
2020/12/27 07:21:21;;;;;;;1.23;0.10;;;;;;;4.41;91.10;98742.97;5000323;28;20451;-79
2020/12/27 07:24:08;;;;;;;1.20;0.10;;;;;;;4.18;91.43;98734.28;5002739;28;21049;-79
2020/12/27 07:26:38;;;;;;;1.10;0.07;;;;;;;4.36;91.39;98737.94;4986752;28;20456;-79
2020/12/27 07:29:08;;;;;;;1.20;0.10;;;;;;;4.34;90.51;98737.53;5001121;28;20490;-78
2020/12/27 07:31:36;;;;;;;1.10;0.07;;;;;;;4.29;91.21;98727.19;5003262;28;20452;-78
2020/12/27 07:34:03;;;;;;;1.10;0.10;;;;;;;4.22;91.50;98729.78;5003374;28;20468;-78
2020/12/27 07:36:28;;;;;;;1.20;0.10;;;;;;;4.21;91.89;98720.25;4986778;28;20474;-79
2020/12/27 07:39:00;;;;;;;1.10;0.10;;;;;;;4.29;90.96;98711.22;4998567;28;20440;-77
2020/12/27 07:41:31;;;;;;;1.10;0.00;;;;;;;4.20;91.18;98690.16;5000565;28;20196;-78
2020/12/27 07:43:58;;;;;;;1.10;0.10;;;;;;;4.32;90.78;98691.84;5002608;28;20462;-78
2020/12/27 07:46:25;;;;;;;1.10;0.00;;;;;;;4.36;90.59;98706.75;4998517;28;20515;-79
2020/12/27 07:48:52;;;;;;;1.10;0.00;;;;;;;4.42;90.46;98678.66;4999079;28;20455;-78
2020/12/27 07:51:19;;;;;;;1.13;0.10;;;;;;;4.42;90.34;98676.00;4999277;28;20591;-78
2020/12/27 07:53:52;;;;;;;1.10;0.10;;;;;;;4.36;90.15;98671.34;4999672;28;21082;-78
2020/12/27 07:56:23;;;;;;;1.20;0.10;;;;;;;4.35;90.40;98656.50;5003214;28;20446;-78
2020/12/27 07:58:54;;;;;;;1.20;0.30;;;;;;;4.38;90.91;98656.53;5007455;28;20435;-79
2020/12/27 08:01:46;;;;;;;1.47;0.10;;;;;;;4.47;90.09;98646.38;4993707;28;20455;-78
2020/12/27 08:04:12;;;;;;;1.30;0.20;;;;;;;4.53;90.12;98630.81;5000693;28;20459;-78
2020/12/27 08:06:41;;;;;;;1.87;0.40;;;;;;;4.46;90.63;98639.50;4994421;28;20453;-78
2020/12/27 08:09:11;;;;;;;1.10;0.00;;;;;;;4.38;90.29;98626.47;4993668;28;20228;-78
2020/12/27 08:11:39;;;;;;;1.10;0.10;;;;;;;4.37;90.64;98633.72;4999405;28;20506;-79
2020/12/27 08:14:10;;;;;;;1.10;0.10;;;;;;;4.33;91.15;98614.25;5026782;28;20466;-78
2020/12/27 08:16:38;;;;;;;2.33;0.30;;;;;;;4.37;91.19;98620.38;5000771;28;20814;-78
2020/12/27 08:19:07;;;;;;;1.30;0.10;;;;;;;4.46;90.91;98612.09;4996425;28;20446;-79
2020/12/27 08:21:35;;;;;;;1.10;0.10;;;;;;;4.40;90.95;98624.19;4994456;28;20448;-78
2020/12/27 08:24:04;;;;;;;1.20;0.10;;;;;;;4.45;90.67;98621.22;4998748;28;20448;-80
2020/12/27 08:26:31;;;;;;;1.20;0.10;;;;;;;4.50;90.60;98619.00;5008050;28;20565;-79
2020/12/27 08:29:10;;;;;;;1.90;0.20;;;;;;;4.45;90.87;98583.94;4995166;28;20850;-78
2020/12/27 08:31:36;;;;;;;1.10;0.00;;;;;;;4.52;90.95;98579.44;4995054;28;20506;-79
2020/12/27 08:34:09;;;;;;;1.10;0.10;;;;;;;4.64;90.82;98580.31;5003451;28;20469;-79
2020/12/27 08:36:39;;;;;;;1.10;0.10;;;;;;;4.45;90.78;98563.38;5000109;28;20253;-79
2020/12/27 08:39:14;;;;;;;1.10;0.10;;;;;;;4.41;90.90;98628.41;5020641;28;20443;-79
2020/12/27 08:41:49;;;;;;;1.10;0.10;;;;;;;4.44;91.46;98551.19;4997673;28;20478;-78
2020/12/27 08:44:34;;;;;;;1.10;0.10;;;;;;;4.51;90.67;98547.81;4998735;28;20496;-79
2020/12/27 08:47:03;;;;;;;1.20;0.10;;;;;;;4.52;90.58;98542.13;4998561;28;20969;-78
2020/12/27 08:49:37;;;;;;;1.37;0.13;;;;;;;4.55;90.91;98538.72;5006042;28;20451;-78
2020/12/27 08:52:26;;;;;;;1.10;0.00;;;;;;;4.56;90.76;98547.50;4993089;28;20513;-78
2020/12/27 08:55:01;;;;;;;1.13;0.07;;;;;;;4.67;91.04;98536.91;5000174;28;20444;-78
2020/12/27 08:57:27;;;;;;;1.10;0.00;;;;;;;4.57;90.90;98543.69;5013274;28;20501;-79
2020/12/27 09:00:10;;;;;;;1.10;0.00;;;;;;;4.67;90.89;98520.91;5007712;28;20439;-78
2020/12/27 09:02:38;;;;;;;1.20;0.20;;;;;;;4.62;90.62;98522.03;4986520;28;20460;-79
2020/12/27 09:05:12;;;;;;;1.10;0.10;;;;;;;4.59;91.24;98525.44;4998156;28;20448;-78
2020/12/27 09:07:39;;;;;;;1.30;0.10;;;;;;;4.62;91.31;98519.38;5003295;28;20498;-78
2020/12/27 09:10:08;;;;;;;1.73;0.30;;;;;;;4.71;91.09;98524.38;4997223;28;20494;-78
2020/12/27 09:12:34;;;;;;;1.10;0.10;;;;;;;4.67;91.11;98528.91;5005035;28;20554;-78
2020/12/27 09:14:59;;;;;;;1.80;0.20;;;;;;;4.66;90.87;98508.75;5004610;28;20515;-77
2020/12/27 09:17:28;;;;;;;1.20;0.10;;;;;;;4.73;90.77;98496.25;5004419;28;20874;-78
2020/12/27 09:19:55;;;;;;;1.10;0.10;;;;;;;4.80;90.53;98485.63;5018318;28;20622;-78
2020/12/27 09:22:21;;;;;;;1.20;0.10;;;;;;;4.87;90.67;98508.91;5000362;28;20463;-80
2020/12/27 09:25:08;;;;;;;1.10;0.10;;;;;;;4.87;90.34;98479.59;4993808;28;20448;-78
2020/12/27 09:27:33;;;;;;;1.10;0.10;;;;;;;4.86;90.28;98481.47;4994591;28;20189;-79
2020/12/27 09:30:03;;;;;;;1.07;0.00;;;;;;;4.86;90.08;98470.81;5000842;28;20447;-78
2020/12/27 09:32:33;;;;;;;1.20;0.10;;;;;;;5.04;90.27;98462.94;5007753;28;20239;-78
2020/12/27 09:34:59;;;;;;;1.10;0.00;;;;;;;4.96;90.33;98451.47;4997345;28;20447;-79
2020/12/27 09:37:24;;;;;;;1.10;0.10;;;;;;;5.04;89.75;98455.72;4999468;28;20444;-78
2020/12/27 09:39:57;;;;;;;2.20;0.33;;;;;;;4.92;90.16;98444.56;4996123;28;20431;-79
2020/12/27 09:42:24;;;;;;;1.10;0.07;;;;;;;4.93;90.13;98438.88;5007177;28;20223;-78
2020/12/27 09:44:49;;;;;;;1.10;0.10;;;;;;;4.91;90.52;98424.38;5001137;28;20447;-78
2020/12/27 09:47:28;;;;;;;1.10;0.00;;;;;;;4.85;90.57;98431.19;4998373;28;20958;-79
2020/12/27 09:50:26;;;;;;;1.10;0.10;;;;;;;4.84;91.54;98414.44;5000796;28;20553;-78
2020/12/27 09:52:52;;;;;;;1.20;0.10;;;;;;;4.85;90.95;98415.22;4996753;28;20486;-78
2020/12/27 09:55:18;;;;;;;1.10;0.10;;;;;;;5.04;90.23;98406.94;5003116;28;20441;-78
2020/12/27 09:57:43;;;;;;;1.10;0.10;;;;;;;5.01;89.91;98402.34;5006626;28;20181;-78
2020/12/27 10:00:09;;;;;;;1.20;0.10;;;;;;;5.04;89.90;98398.94;5011195;28;20184;-78
2020/12/27 10:02:35;;;;;;;1.10;0.10;;;;;;;5.15;90.46;98403.19;5011506;28;20216;-78
2020/12/27 10:05:00;;;;;;;1.10;0.07;;;;;;;4.99;90.16;98389.41;5011203;28;20443;-79
2020/12/27 10:07:26;;;;;;;1.07;0.07;;;;;;;5.09;90.31;98374.59;5022116;28;20701;-77
2020/12/27 10:09:51;;;;;;;1.10;0.10;;;;;;;5.09;89.82;98383.34;5015883;28;20675;-79
2020/12/27 10:12:18;;;;;;;1.10;0.10;;;;;;;4.99;90.04;98368.06;5005955;28;20224;-78
2020/12/27 10:14:44;;;;;;;1.10;0.10;;;;;;;5.02;90.16;98358.53;5004124;28;20480;-78
2020/12/27 10:17:10;;;;;;;1.10;0.00;;;;;;;5.05;90.40;98352.47;5004202;28;20909;-78
2020/12/27 10:19:35;;;;;;;1.20;0.10;;;;;;;5.33;89.91;98341.91;5011673;28;20185;-78
2020/12/27 10:22:02;;;;;;;1.10;0.13;;;;;;;5.23;89.95;98335.38;4987657;28;20523;-80
2020/12/27 10:24:31;;;;;;;1.10;0.00;;;;;;;5.10;90.03;98339.53;5000647;28;20442;-79
2020/12/27 10:26:58;;;;;;;1.10;0.10;;;;;;;5.10;90.06;98333.44;5002040;28;20535;-78
2020/12/27 10:29:23;;;;;;;1.10;0.10;;;;;;;5.13;90.62;98330.78;4997455;28;20792;-78
2020/12/27 10:31:50;;;;;;;1.13;0.10;;;;;;;5.18;89.76;98324.31;5005700;28;20506;-78
2020/12/27 10:34:17;;;;;;;1.10;0.10;;;;;;;5.21;89.67;98327.00;5003642;28;20572;-78
2020/12/27 10:36:46;;;;;;;1.10;0.10;;;;;;;5.18;89.53;98311.75;5003172;28;20466;-78
2020/12/27 10:39:13;;;;;;;1.00;0.00;;;;;;;5.24;89.81;98320.16;5003566;28;20455;-78
2020/12/27 10:41:40;;;;;;;1.10;0.10;;;;;;;5.27;89.74;98306.81;5007720;28;20448;-79
2020/12/27 10:44:05;;;;;;;2.33;0.17;;;;;;;5.28;89.32;98297.66;5009067;28;20459;-78
2020/12/27 10:46:31;;;;;;;1.03;0.10;;;;;;;5.35;89.27;98286.25;4992491;28;21019;-77
2020/12/27 10:48:57;;;;;;;1.10;0.10;;;;;;;5.46;88.63;98279.78;4995798;28;20455;-77
2020/12/27 10:51:22;;;;;;;1.10;0.00;;;;;;;5.49;88.74;98283.63;5000787;28;20180;-78
2020/12/27 10:53:47;;;;;;;1.40;0.10;;;;;;;5.35;88.64;98279.03;5005380;28;20208;-78
2020/12/27 10:56:13;;;;;;;1.10;0.10;;;;;;;5.42;88.93;98280.91;4999766;28;20192;-78
2020/12/27 10:58:38;;;;;;;1.10;0.10;;;;;;;5.39;89.43;98277.13;5005074;28;20197;-78
2020/12/27 11:01:04;;;;;;;1.40;0.10;;;;;;;5.48;89.13;98280.19;5004255;28;20268;-79
2020/12/27 11:03:29;;;;;;;1.10;0.07;;;;;;;5.39;88.69;98271.78;5007267;28;20200;-78
2020/12/27 11:05:55;;;;;;;1.13;0.07;;;;;;;5.35;89.10;98273.69;5004533;28;20177;-78
2020/12/27 11:08:20;;;;;;;1.07;0.10;;;;;;;5.38;88.79;98254.22;5006890;28;20276;-80
2020/12/27 11:10:46;;;;;;;1.10;0.10;;;;;;;5.35;88.44;98236.34;5004124;28;20680;-78
2020/12/27 11:13:12;;;;;;;1.10;0.10;;;;;;;5.43;88.73;98235.19;5002042;28;20288;-78
2020/12/27 11:15:37;;;;;;;1.10;0.10;;;;;;;5.37;88.25;98223.38;5006181;28;20593;-78
2020/12/27 11:18:04;;;;;;;1.00;0.07;;;;;;;5.37;88.52;98212.69;4998363;28;20445;-78
2020/12/27 11:20:29;;;;;;;1.07;0.10;;;;;;;5.46;88.52;98210.41;4991984;28;20277;-78
2020/12/27 11:22:59;;;;;;;1.70;0.10;;;;;;;5.46;88.25;98199.75;5001109;28;20568;-78
2020/12/27 11:25:25;;;;;;;1.40;0.27;;;;;;;5.52;88.10;98175.34;5002808;28;20271;-78
2020/12/27 11:27:51;;;;;;;1.40;0.20;;;;;;;5.54;87.76;98179.16;5002510;28;20461;-78
2020/12/27 11:30:18;;;;;;;1.40;0.30;;;;;;;5.45;88.79;98192.88;5000425;28;20453;-77
2020/12/27 11:32:44;;;;;;;2.40;0.20;;;;;;;5.32;88.99;98174.97;4998891;28;20475;-77
2020/12/27 11:35:10;;;;;;;1.20;0.20;;;;;;;5.51;89.28;98166.59;5005063;28;20505;-77
2020/12/27 11:37:35;;;;;;;1.20;0.10;;;;;;;5.47;88.67;98160.47;4984496;28;20472;-76
2020/12/27 11:40:03;;;;;;;1.07;0.00;;;;;;;5.43;89.58;98141.03;4995954;28;20460;-77
2020/12/27 11:42:28;;;;;;;1.10;0.00;;;;;;;5.36;89.46;98162.41;5000948;28;20303;-77
2020/12/27 11:44:56;;;;;;;1.07;0.07;;;;;;;5.35;89.90;98134.94;5007554;28;20487;-77
2020/12/27 11:47:22;;;;;;;1.10;0.00;;;;;;;5.61;89.93;98141.78;5005776;28;20181;-78
2020/12/27 11:49:47;;;;;;;1.10;0.10;;;;;;;5.60;89.43;98139.47;4993144;28;20463;-77
2020/12/27 11:52:13;;;;;;;1.10;0.10;;;;;;;5.52;89.39;98122.72;4990787;28;20216;-78
2020/12/27 11:54:39;;;;;;;1.10;0.10;;;;;;;5.43;89.95;98117.03;5001821;28;20296;-78
2020/12/27 11:57:04;;;;;;;1.20;0.10;;;;;;;5.33;90.29;98120.47;4997909;28;20934;-78
2020/12/27 11:59:33;;;;;;;1.10;0.20;;;;;;;5.36;91.52;98107.09;4995132;28;20268;-78
2020/12/27 12:02:03;;;;;;;1.00;0.10;;;;;;;5.36;91.25;98098.38;4990978;28;20280;-78
2020/12/27 12:04:49;;;;;;;1.07;0.00;;;;;;;5.36;91.32;98088.44;5001978;28;20440;-78